sensor_id;sensor_type;location;lat;lon;timestamp;temperature;humidity
41644;DHT22;44236;48.098;11.582;2022-08-11T00:00:52;25.50;37.60
41644;DHT22;44236;48.098;11.582;2022-08-11T00:03:17;25.50;37.60
41644;DHT22;44236;48.098;11.582;2022-08-11T00:05:50;25.40;37.60
41644;DHT22;44236;48.098;11.582;2022-08-11T00:08:25;25.40;37.60
41644;DHT22;44236;48.098;11.582;2022-08-11T00:10:53;25.40;37.70
41644;DHT22;44236;48.098;11.582;2022-08-11T00:13:21;25.40;37.70
41644;DHT22;44236;48.098;11.582;2022-08-11T00:15:47;25.40;37.80
41644;DHT22;44236;48.098;11.582;2022-08-11T00:18:14;25.40;37.80
41644;DHT22;44236;48.098;11.582;2022-08-11T00:20:41;25.30;37.80
41644;DHT22;44236;48.098;11.582;2022-08-11T00:23:17;25.30;37.80
41644;DHT22;44236;48.098;11.582;2022-08-11T00:25:45;25.30;37.90
41644;DHT22;44236;48.098;11.582;2022-08-11T00:28:34;25.30;37.90
41644;DHT22;44236;48.098;11.582;2022-08-11T00:31:03;25.30;37.90
41644;DHT22;44236;48.098;11.582;2022-08-11T00:33:33;25.20;37.90
41644;DHT22;44236;48.098;11.582;2022-08-11T00:36:02;25.30;38.00
41644;DHT22;44236;48.098;11.582;2022-08-11T00:38:32;25.30;38.10
41644;DHT22;44236;48.098;11.582;2022-08-11T00:59:55;25.20;38.60
41644;DHT22;44236;48.098;11.582;2022-08-11T01:38:46;24.90;38.90
41644;DHT22;44236;48.098;11.582;2022-08-11T01:58:30;24.80;38.60
41644;DHT22;44236;48.098;11.582;2022-08-11T02:15:27;24.80;39.20
41644;DHT22;44236;48.098;11.582;2022-08-11T02:20:26;24.70;39.20
41644;DHT22;44236;48.098;11.582;2022-08-11T02:28:54;24.70;39.30
41644;DHT22;44236;48.098;11.582;2022-08-11T02:35:07;24.70;39.40
41644;DHT22;44236;48.098;11.582;2022-08-11T02:42:30;24.60;39.40
41644;DHT22;44236;48.098;11.582;2022-08-11T02:53:35;24.60;39.50
41644;DHT22;44236;48.098;11.582;2022-08-11T02:58:48;24.50;39.50
41644;DHT22;44236;48.098;11.582;2022-08-11T03:01:44;24.50;39.50
41644;DHT22;44236;48.098;11.582;2022-08-11T03:04:25;24.50;39.70
41644;DHT22;44236;48.098;11.582;2022-08-11T03:07:19;24.50;39.60
41644;DHT22;44236;48.098;11.582;2022-08-11T03:09:51;24.50;39.60
41644;DHT22;44236;48.098;11.582;2022-08-11T03:12:29;24.50;39.60
41644;DHT22;44236;48.098;11.582;2022-08-11T03:15:21;24.50;39.60
41644;DHT22;44236;48.098;11.582;2022-08-11T03:18:25;24.50;39.60
41644;DHT22;44236;48.098;11.582;2022-08-11T03:21:19;24.40;39.60
41644;DHT22;44236;48.098;11.582;2022-08-11T03:29:35;23.80;39.40
41644;DHT22;44236;48.098;11.582;2022-08-11T03:32:09;24.40;39.70
41644;DHT22;44236;48.098;11.582;2022-08-11T03:34:38;24.40;39.70
41644;DHT22;44236;48.098;11.582;2022-08-11T03:43:31;24.30;40.20
41644;DHT22;44236;48.098;11.582;2022-08-11T03:46:12;24.30;39.70
41644;DHT22;44236;48.098;11.582;2022-08-11T03:51:52;24.30;39.70
41644;DHT22;44236;48.098;11.582;2022-08-11T04:24:43;24.10;40.00
41644;DHT22;44236;48.098;11.582;2022-08-11T04:35:56;24.10;40.90
41644;DHT22;44236;48.098;11.582;2022-08-11T04:47:42;24.10;41.10
41644;DHT22;44236;48.098;11.582;2022-08-11T04:53:57;24.10;41.00
41644;DHT22;44236;48.098;11.582;2022-08-11T04:56:44;24.10;41.00
41644;DHT22;44236;48.098;11.582;2022-08-11T05:00:08;24.10;41.60
41644;DHT22;44236;48.098;11.582;2022-08-11T05:06:01;24.10;41.10
41644;DHT22;44236;48.098;11.582;2022-08-11T05:08:57;24.10;41.00
41644;DHT22;44236;48.098;11.582;2022-08-11T05:15:09;24.00;41.00
41644;DHT22;44236;48.098;11.582;2022-08-11T05:18:00;24.00;40.90
41644;DHT22;44236;48.098;11.582;2022-08-11T05:20:49;24.00;41.00
41644;DHT22;44236;48.098;11.582;2022-08-11T05:23:35;24.00;41.10
41644;DHT22;44236;48.098;11.582;2022-08-11T05:26:22;24.00;41.40
41644;DHT22;44236;48.098;11.582;2022-08-11T05:32:35;24.00;43.00
41644;DHT22;44236;48.098;11.582;2022-08-11T05:35:40;24.00;43.20
41644;DHT22;44236;48.098;11.582;2022-08-11T05:38:20;24.00;43.20
41644;DHT22;44236;48.098;11.582;2022-08-11T05:41:06;24.00;43.40
41644;DHT22;44236;48.098;11.582;2022-08-11T05:43:51;24.00;43.70
41644;DHT22;44236;48.098;11.582;2022-08-11T05:46:40;24.00;43.70
41644;DHT22;44236;48.098;11.582;2022-08-11T05:49:30;24.00;44.00
41644;DHT22;44236;48.098;11.582;2022-08-11T05:52:28;24.00;44.70
41644;DHT22;44236;48.098;11.582;2022-08-11T05:55:14;24.00;44.20
41644;DHT22;44236;48.098;11.582;2022-08-11T05:58:01;24.00;44.30
41644;DHT22;44236;48.098;11.582;2022-08-11T06:00:28;24.00;44.60
41644;DHT22;44236;48.098;11.582;2022-08-11T06:02:56;24.00;45.60
41644;DHT22;44236;48.098;11.582;2022-08-11T06:05:24;24.00;45.00
41644;DHT22;44236;48.098;11.582;2022-08-11T06:07:57;24.00;44.50
41644;DHT22;44236;48.098;11.582;2022-08-11T06:10:31;24.10;44.60
41644;DHT22;44236;48.098;11.582;2022-08-11T06:12:58;24.10;44.70
41644;DHT22;44236;48.098;11.582;2022-08-11T06:15:31;24.10;44.60
41644;DHT22;44236;48.098;11.582;2022-08-11T06:17:58;24.10;44.70
41644;DHT22;44236;48.098;11.582;2022-08-11T06:20:26;24.10;44.60
41644;DHT22;44236;48.098;11.582;2022-08-11T06:23:00;24.00;44.60
41644;DHT22;44236;48.098;11.582;2022-08-11T06:25:34;24.10;44.60
41644;DHT22;44236;48.098;11.582;2022-08-11T06:28:03;24.10;44.80
41644;DHT22;44236;48.098;11.582;2022-08-11T06:30:48;24.10;44.60
41644;DHT22;44236;48.098;11.582;2022-08-11T06:35:59;24.10;44.70
41644;DHT22;44236;48.098;11.582;2022-08-11T06:41:29;24.10;44.50
41644;DHT22;44236;48.098;11.582;2022-08-11T06:46:32;24.10;44.20
41644;DHT22;44236;48.098;11.582;2022-08-11T06:49:02;24.00;44.10
41644;DHT22;44236;48.098;11.582;2022-08-11T06:51:28;24.10;44.10
41644;DHT22;44236;48.098;11.582;2022-08-11T06:53:57;24.00;44.00
41644;DHT22;44236;48.098;11.582;2022-08-11T06:56:33;24.00;43.90
41644;DHT22;44236;48.098;11.582;2022-08-11T06:59:19;24.00;43.80
41644;DHT22;44236;48.098;11.582;2022-08-11T07:04:46;24.10;43.90
41644;DHT22;44236;48.098;11.582;2022-08-11T07:07:25;24.00;43.90
41644;DHT22;44236;48.098;11.582;2022-08-11T07:13:10;24.00;43.90
41644;DHT22;44236;48.098;11.582;2022-08-11T07:15:57;24.00;44.00
41644;DHT22;44236;48.098;11.582;2022-08-11T07:18:30;24.00;44.00
41644;DHT22;44236;48.098;11.582;2022-08-11T07:21:28;24.10;44.10
41644;DHT22;44236;48.098;11.582;2022-08-11T07:24:22;24.00;44.00
41644;DHT22;44236;48.098;11.582;2022-08-11T07:27:13;24.10;44.10
41644;DHT22;44236;48.098;11.582;2022-08-11T07:30:00;24.00;44.00
41644;DHT22;44236;48.098;11.582;2022-08-11T07:32:30;24.00;44.00
41644;DHT22;44236;48.098;11.582;2022-08-11T07:35:11;24.10;44.10
41644;DHT22;44236;48.098;11.582;2022-08-11T07:37:41;24.10;44.10
41644;DHT22;44236;48.098;11.582;2022-08-11T07:40:08;24.00;44.10
41644;DHT22;44236;48.098;11.582;2022-08-11T07:42:34;24.10;44.60
41644;DHT22;44236;48.098;11.582;2022-08-11T07:45:05;24.10;44.10
41644;DHT22;44236;48.098;11.582;2022-08-11T07:47:51;24.10;44.10
41644;DHT22;44236;48.098;11.582;2022-08-11T07:50:40;24.00;44.10
41644;DHT22;44236;48.098;11.582;2022-08-11T07:53:26;24.10;44.10
41644;DHT22;44236;48.098;11.582;2022-08-11T07:55:55;24.10;44.10
41644;DHT22;44236;48.098;11.582;2022-08-11T07:58:23;24.10;44.10
41644;DHT22;44236;48.098;11.582;2022-08-11T08:01:10;24.10;44.10
41644;DHT22;44236;48.098;11.582;2022-08-11T08:03:58;24.10;44.40
41644;DHT22;44236;48.098;11.582;2022-08-11T08:06:43;24.10;44.80
41644;DHT22;44236;48.098;11.582;2022-08-11T08:09:32;24.10;44.90
41644;DHT22;44236;48.098;11.582;2022-08-11T08:12:20;24.10;45.00
41644;DHT22;44236;48.098;11.582;2022-08-11T08:15:10;24.10;44.80
41644;DHT22;44236;48.098;11.582;2022-08-11T08:18:00;24.10;44.20
41644;DHT22;44236;48.098;11.582;2022-08-11T08:20:35;24.10;44.10
41644;DHT22;44236;48.098;11.582;2022-08-11T08:23:01;24.10;44.00
41644;DHT22;44236;48.098;11.582;2022-08-11T08:25:31;24.10;44.00
41644;DHT22;44236;48.098;11.582;2022-08-11T08:27:58;24.10;44.00
41644;DHT22;44236;48.098;11.582;2022-08-11T08:30:26;24.20;44.00
41644;DHT22;44236;48.098;11.582;2022-08-11T08:33:29;24.10;44.00
41644;DHT22;44236;48.098;11.582;2022-08-11T08:36:00;24.10;43.70
41644;DHT22;44236;48.098;11.582;2022-08-11T08:38:40;23.60;43.20
41644;DHT22;44236;48.098;11.582;2022-08-11T08:41:07;24.10;43.90
41644;DHT22;44236;48.098;11.582;2022-08-11T08:43:35;24.10;43.90
41644;DHT22;44236;48.098;11.582;2022-08-11T08:46:04;24.10;44.00
41644;DHT22;44236;48.098;11.582;2022-08-11T08:48:32;24.10;43.90
41644;DHT22;44236;48.098;11.582;2022-08-11T08:51:06;24.10;43.90
41644;DHT22;44236;48.098;11.582;2022-08-11T08:53:53;24.10;44.00
41644;DHT22;44236;48.098;11.582;2022-08-11T08:56:25;24.10;44.00
41644;DHT22;44236;48.098;11.582;2022-08-11T08:58:52;24.10;44.10
41644;DHT22;44236;48.098;11.582;2022-08-11T09:01:20;24.10;44.10
41644;DHT22;44236;48.098;11.582;2022-08-11T09:03:47;24.10;44.00
41644;DHT22;44236;48.098;11.582;2022-08-11T09:06:14;24.10;44.00
41644;DHT22;44236;48.098;11.582;2022-08-11T09:08:43;24.10;43.90
41644;DHT22;44236;48.098;11.582;2022-08-11T09:11:10;24.10;43.90
41644;DHT22;44236;48.098;11.582;2022-08-11T09:13:55;24.10;43.80
41644;DHT22;44236;48.098;11.582;2022-08-11T09:16:22;24.10;43.90
41644;DHT22;44236;48.098;11.582;2022-08-11T09:18:49;24.10;43.80
41644;DHT22;44236;48.098;11.582;2022-08-11T09:21:16;24.10;43.70
41644;DHT22;44236;48.098;11.582;2022-08-11T09:23:46;24.10;43.60
41644;DHT22;44236;48.098;11.582;2022-08-11T09:26:30;24.10;43.70
41644;DHT22;44236;48.098;11.582;2022-08-11T09:29:15;24.10;43.60
41644;DHT22;44236;48.098;11.582;2022-08-11T09:31:41;24.10;43.60
41644;DHT22;44236;48.098;11.582;2022-08-11T09:34:09;24.10;43.50
41644;DHT22;44236;48.098;11.582;2022-08-11T09:36:35;24.10;43.50
41644;DHT22;44236;48.098;11.582;2022-08-11T09:39:20;24.10;43.50
41644;DHT22;44236;48.098;11.582;2022-08-11T09:42:05;24.10;43.40
41644;DHT22;44236;48.098;11.582;2022-08-11T09:44:33;24.10;43.30
41644;DHT22;44236;48.098;11.582;2022-08-11T09:47:17;24.10;43.20
41644;DHT22;44236;48.098;11.582;2022-08-11T09:49:44;24.10;43.20
41644;DHT22;44236;48.098;11.582;2022-08-11T09:52:11;24.10;43.80
41644;DHT22;44236;48.098;11.582;2022-08-11T09:54:40;24.10;43.40
41644;DHT22;44236;48.098;11.582;2022-08-11T09:57:06;24.10;43.40
41644;DHT22;44236;48.098;11.582;2022-08-11T09:59:52;24.10;43.40
41644;DHT22;44236;48.098;11.582;2022-08-11T10:02:24;24.10;43.20
41644;DHT22;44236;48.098;11.582;2022-08-11T10:04:54;24.10;43.20
41644;DHT22;44236;48.098;11.582;2022-08-11T10:07:43;24.10;43.10
41644;DHT22;44236;48.098;11.582;2022-08-11T10:10:18;24.10;43.10
41644;DHT22;44236;48.098;11.582;2022-08-11T10:12:50;24.10;43.00
41644;DHT22;44236;48.098;11.582;2022-08-11T10:15:18;24.10;43.00
41644;DHT22;44236;48.098;11.582;2022-08-11T10:18:07;24.10;43.00
41644;DHT22;44236;48.098;11.582;2022-08-11T10:20:56;24.10;42.90
41644;DHT22;44236;48.098;11.582;2022-08-11T10:23:23;24.10;43.00
41644;DHT22;44236;48.098;11.582;2022-08-11T10:26:08;24.10;43.00
41644;DHT22;44236;48.098;11.582;2022-08-11T10:28:53;24.10;43.00
41644;DHT22;44236;48.098;11.582;2022-08-11T10:31:20;24.20;43.00
41644;DHT22;44236;48.098;11.582;2022-08-11T10:34:08;24.10;43.00
41644;DHT22;44236;48.098;11.582;2022-08-11T10:36:42;24.20;43.00
41644;DHT22;44236;48.098;11.582;2022-08-11T10:39:14;24.20;43.00
41644;DHT22;44236;48.098;11.582;2022-08-11T10:41:45;24.20;43.00
41644;DHT22;44236;48.098;11.582;2022-08-11T10:44:49;24.20;43.00
41644;DHT22;44236;48.098;11.582;2022-08-11T10:47:16;24.20;43.00
41644;DHT22;44236;48.098;11.582;2022-08-11T10:50:12;24.20;42.90
41644;DHT22;44236;48.098;11.582;2022-08-11T10:52:58;24.20;42.80
41644;DHT22;44236;48.098;11.582;2022-08-11T10:55:44;24.20;42.80
41644;DHT22;44236;48.098;11.582;2022-08-11T10:58:30;24.20;42.90
41644;DHT22;44236;48.098;11.582;2022-08-11T11:03:41;24.20;42.80
41644;DHT22;44236;48.098;11.582;2022-08-11T11:08:55;24.20;42.90
41644;DHT22;44236;48.098;11.582;2022-08-11T11:11:24;24.20;43.00
41644;DHT22;44236;48.098;11.582;2022-08-11T11:14:18;24.20;42.90
41644;DHT22;44236;48.098;11.582;2022-08-11T11:17:08;24.20;42.90
41644;DHT22;44236;48.098;11.582;2022-08-11T11:19:41;24.20;42.80
41644;DHT22;44236;48.098;11.582;2022-08-11T11:22:09;24.20;42.80
41644;DHT22;44236;48.098;11.582;2022-08-11T11:30:31;24.30;42.80
41644;DHT22;44236;48.098;11.582;2022-08-11T11:33:32;24.30;42.80
41644;DHT22;44236;48.098;11.582;2022-08-11T11:36:14;24.30;43.20
41644;DHT22;44236;48.098;11.582;2022-08-11T11:38:44;24.30;42.70
41644;DHT22;44236;48.098;11.582;2022-08-11T11:41:10;24.30;42.60
41644;DHT22;44236;48.098;11.582;2022-08-11T11:43:49;24.30;42.60
41644;DHT22;44236;48.098;11.582;2022-08-11T11:46:15;24.30;42.70
41644;DHT22;44236;48.098;11.582;2022-08-11T11:48:42;24.30;42.60
41644;DHT22;44236;48.098;11.582;2022-08-11T11:51:09;24.30;42.70
41644;DHT22;44236;48.098;11.582;2022-08-11T11:53:41;24.30;42.60
41644;DHT22;44236;48.098;11.582;2022-08-11T11:56:09;24.30;42.50
41644;DHT22;44236;48.098;11.582;2022-08-11T11:58:37;24.30;42.60
41644;DHT22;44236;48.098;11.582;2022-08-11T12:01:22;24.30;42.60
41644;DHT22;44236;48.098;11.582;2022-08-11T12:03:52;24.40;42.70
41644;DHT22;44236;48.098;11.582;2022-08-11T12:06:20;24.40;42.70
41644;DHT22;44236;48.098;11.582;2022-08-11T12:08:49;24.40;42.70
41644;DHT22;44236;48.098;11.582;2022-08-11T12:11:16;24.40;42.70
41644;DHT22;44236;48.098;11.582;2022-08-11T12:14:04;24.40;42.70
41644;DHT22;44236;48.098;11.582;2022-08-11T12:16:31;24.50;42.50
41644;DHT22;44236;48.098;11.582;2022-08-11T12:18:59;24.60;42.50
41644;DHT22;44236;48.098;11.582;2022-08-11T12:21:27;24.60;42.40
41644;DHT22;44236;48.098;11.582;2022-08-11T12:23:59;24.80;42.20
41644;DHT22;44236;48.098;11.582;2022-08-11T12:26:43;24.90;42.10
41644;DHT22;44236;48.098;11.582;2022-08-11T12:29:13;25.00;41.90
41644;DHT22;44236;48.098;11.582;2022-08-11T12:31:40;25.10;41.80
41644;DHT22;44236;48.098;11.582;2022-08-11T12:34:09;25.20;41.70
41644;DHT22;44236;48.098;11.582;2022-08-11T12:36:37;25.30;41.60
41644;DHT22;44236;48.098;11.582;2022-08-11T12:39:09;25.40;41.50
41644;DHT22;44236;48.098;11.582;2022-08-11T12:41:36;25.50;41.30
41644;DHT22;44236;48.098;11.582;2022-08-11T12:44:24;25.50;41.20
41644;DHT22;44236;48.098;11.582;2022-08-11T12:47:08;25.70;41.00
41644;DHT22;44236;48.098;11.582;2022-08-11T12:49:37;25.70;40.40
41644;DHT22;44236;48.098;11.582;2022-08-11T12:52:26;25.80;40.20
41644;DHT22;44236;48.098;11.582;2022-08-11T12:55:01;25.90;40.00
41644;DHT22;44236;48.098;11.582;2022-08-11T13:00:15;26.00;39.60
41644;DHT22;44236;48.098;11.582;2022-08-11T13:03:01;26.10;39.30
41644;DHT22;44236;48.098;11.582;2022-08-11T13:05:47;26.20;39.20
41644;DHT22;44236;48.098;11.582;2022-08-11T13:08:15;26.20;39.20
41644;DHT22;44236;48.098;11.582;2022-08-11T13:10:42;26.30;38.90
41644;DHT22;44236;48.098;11.582;2022-08-11T13:13:28;26.40;38.60
41644;DHT22;44236;48.098;11.582;2022-08-11T13:15:54;26.40;38.30
41644;DHT22;44236;48.098;11.582;2022-08-11T13:18:22;26.40;38.20
41644;DHT22;44236;48.098;11.582;2022-08-11T13:20:50;26.50;38.20
41644;DHT22;44236;48.098;11.582;2022-08-11T13:23:17;26.60;38.00
41644;DHT22;44236;48.098;11.582;2022-08-11T13:25:44;26.60;37.60
41644;DHT22;44236;48.098;11.582;2022-08-11T13:28:10;26.60;37.30
41644;DHT22;44236;48.098;11.582;2022-08-11T13:30:38;26.70;37.20
41644;DHT22;44236;48.098;11.582;2022-08-11T13:33:24;26.70;37.10
41644;DHT22;44236;48.098;11.582;2022-08-11T13:35:51;26.70;37.00
41644;DHT22;44236;48.098;11.582;2022-08-11T13:38:19;26.70;36.80
41644;DHT22;44236;48.098;11.582;2022-08-11T13:40:47;26.80;36.90
41644;DHT22;44236;48.098;11.582;2022-08-11T13:43:15;26.80;36.70
41644;DHT22;44236;48.098;11.582;2022-08-11T13:45:46;26.80;36.50
41644;DHT22;44236;48.098;11.582;2022-08-11T13:48:13;26.80;36.90
41644;DHT22;44236;48.098;11.582;2022-08-11T13:50:40;26.80;36.50
41644;DHT22;44236;48.098;11.582;2022-08-11T13:53:26;26.80;36.20
41644;DHT22;44236;48.098;11.582;2022-08-11T13:55:52;26.90;36.30
41644;DHT22;44236;48.098;11.582;2022-08-11T13:58:19;26.80;36.50
41644;DHT22;44236;48.098;11.582;2022-08-11T14:00:49;26.80;36.00
41644;DHT22;44236;48.098;11.582;2022-08-11T14:03:18;26.90;36.00
41644;DHT22;44236;48.098;11.582;2022-08-11T14:05:50;26.90;36.10
41644;DHT22;44236;48.098;11.582;2022-08-11T14:08:22;26.90;36.00
41644;DHT22;44236;48.098;11.582;2022-08-11T14:10:49;26.90;36.10
41644;DHT22;44236;48.098;11.582;2022-08-11T14:13:41;26.90;36.10
41644;DHT22;44236;48.098;11.582;2022-08-11T14:16:09;26.90;36.00
41644;DHT22;44236;48.098;11.582;2022-08-11T14:18:42;26.90;36.10
41644;DHT22;44236;48.098;11.582;2022-08-11T14:21:11;26.90;36.30
41644;DHT22;44236;48.098;11.582;2022-08-11T14:23:55;26.90;36.40
41644;DHT22;44236;48.098;11.582;2022-08-11T14:26:24;26.90;36.30
41644;DHT22;44236;48.098;11.582;2022-08-11T14:29:07;26.90;36.20
41644;DHT22;44236;48.098;11.582;2022-08-11T14:31:36;26.90;36.00
41644;DHT22;44236;48.098;11.582;2022-08-11T14:34:04;26.90;35.90
41644;DHT22;44236;48.098;11.582;2022-08-11T14:36:35;26.90;36.00
41644;DHT22;44236;48.098;11.582;2022-08-11T14:41:40;26.90;36.10
41644;DHT22;44236;48.098;11.582;2022-08-11T14:44:34;26.90;35.90
41644;DHT22;44236;48.098;11.582;2022-08-11T14:47:20;26.90;35.80
41644;DHT22;44236;48.098;11.582;2022-08-11T14:49:48;26.80;35.70
41644;DHT22;44236;48.098;11.582;2022-08-11T14:52:17;26.80;36.50
41644;DHT22;44236;48.098;11.582;2022-08-11T14:54:50;26.80;37.00
41644;DHT22;44236;48.098;11.582;2022-08-11T14:57:37;26.70;37.10
41644;DHT22;44236;48.098;11.582;2022-08-11T15:00:06;26.60;37.20
41644;DHT22;44236;48.098;11.582;2022-08-11T15:02:36;26.60;37.40
41644;DHT22;44236;48.098;11.582;2022-08-11T15:05:23;26.60;37.80
41644;DHT22;44236;48.098;11.582;2022-08-11T15:07:50;26.50;37.90
41644;DHT22;44236;48.098;11.582;2022-08-11T15:10:17;26.60;37.90
41644;DHT22;44236;48.098;11.582;2022-08-11T15:12:44;26.50;37.60
41644;DHT22;44236;48.098;11.582;2022-08-11T15:15:10;26.50;37.90
41644;DHT22;44236;48.098;11.582;2022-08-11T15:17:58;26.60;37.70
41644;DHT22;44236;48.098;11.582;2022-08-11T15:20:26;26.50;37.60
41644;DHT22;44236;48.098;11.582;2022-08-11T15:23:11;26.50;37.30
41644;DHT22;44236;48.098;11.582;2022-08-11T15:26:15;26.60;37.10
41644;DHT22;44236;48.098;11.582;2022-08-11T15:28:47;26.60;37.10
41644;DHT22;44236;48.098;11.582;2022-08-11T15:31:33;26.60;37.10
41644;DHT22;44236;48.098;11.582;2022-08-11T15:34:09;26.60;37.00
41644;DHT22;44236;48.098;11.582;2022-08-11T15:36:59;26.70;37.00
41644;DHT22;44236;48.098;11.582;2022-08-11T15:42:30;26.70;36.30
41644;DHT22;44236;48.098;11.582;2022-08-11T15:45:16;26.70;36.80
41644;DHT22;44236;48.098;11.582;2022-08-11T15:48:07;26.70;36.60
41644;DHT22;44236;48.098;11.582;2022-08-11T15:50:40;26.70;36.50
41644;DHT22;44236;48.098;11.582;2022-08-11T15:56:09;26.70;36.30
41644;DHT22;44236;48.098;11.582;2022-08-11T15:58:40;26.70;36.20
41644;DHT22;44236;48.098;11.582;2022-08-11T16:01:26;26.70;36.20
41644;DHT22;44236;48.098;11.582;2022-08-11T16:04:21;26.70;36.10
41644;DHT22;44236;48.098;11.582;2022-08-11T16:06:56;26.70;36.10
41644;DHT22;44236;48.098;11.582;2022-08-11T16:09:35;26.70;35.90
41644;DHT22;44236;48.098;11.582;2022-08-11T16:12:04;26.70;36.00
41644;DHT22;44236;48.098;11.582;2022-08-11T16:14:35;26.70;35.90
41644;DHT22;44236;48.098;11.582;2022-08-11T16:17:23;26.70;35.90
41644;DHT22;44236;48.098;11.582;2022-08-11T16:19:53;26.70;36.10
41644;DHT22;44236;48.098;11.582;2022-08-11T16:22:23;26.70;36.40
41644;DHT22;44236;48.098;11.582;2022-08-11T16:24:53;26.70;36.60
41644;DHT22;44236;48.098;11.582;2022-08-11T16:27:20;26.70;36.90
41644;DHT22;44236;48.098;11.582;2022-08-11T16:29:46;26.70;37.10
41644;DHT22;44236;48.098;11.582;2022-08-11T16:32:18;26.70;37.20
41644;DHT22;44236;48.098;11.582;2022-08-11T16:34:55;26.70;37.00
41644;DHT22;44236;48.098;11.582;2022-08-11T16:37:41;26.70;36.40
41644;DHT22;44236;48.098;11.582;2022-08-11T16:40:27;26.70;36.20
41644;DHT22;44236;48.098;11.582;2022-08-11T16:42:55;26.70;36.10
41644;DHT22;44236;48.098;11.582;2022-08-11T16:45:41;27.60;36.30
41644;DHT22;44236;48.098;11.582;2022-08-11T16:48:29;26.70;35.70
41644;DHT22;44236;48.098;11.582;2022-08-11T16:50:55;26.60;35.60
41644;DHT22;44236;48.098;11.582;2022-08-11T16:53:24;26.70;35.50
41644;DHT22;44236;48.098;11.582;2022-08-11T16:55:51;26.60;35.60
41644;DHT22;44236;48.098;11.582;2022-08-11T16:58:19;26.60;35.50
41644;DHT22;44236;48.098;11.582;2022-08-11T17:01:05;26.60;35.60
41644;DHT22;44236;48.098;11.582;2022-08-11T17:03:33;28.60;37.20
41644;DHT22;44236;48.098;11.582;2022-08-11T17:06:20;26.60;35.90
41644;DHT22;44236;48.098;11.582;2022-08-11T17:09:26;26.60;35.50
41644;DHT22;44236;48.098;11.582;2022-08-11T17:12:13;26.60;36.20
41644;DHT22;44236;48.098;11.582;2022-08-11T17:15:00;26.60;37.00
41644;DHT22;44236;48.098;11.582;2022-08-11T17:17:29;26.60;37.20
41644;DHT22;44236;48.098;11.582;2022-08-11T17:20:01;26.60;37.20
41644;DHT22;44236;48.098;11.582;2022-08-11T17:22:29;26.70;37.00
41644;DHT22;44236;48.098;11.582;2022-08-11T17:25:15;26.70;36.80
41644;DHT22;44236;48.098;11.582;2022-08-11T17:27:42;26.70;36.70
41644;DHT22;44236;48.098;11.582;2022-08-11T17:30:08;26.70;37.10
41644;DHT22;44236;48.098;11.582;2022-08-11T17:32:36;26.70;36.90
41644;DHT22;44236;48.098;11.582;2022-08-11T17:35:22;26.80;36.80
41644;DHT22;44236;48.098;11.582;2022-08-11T17:40:33;26.90;36.50
41644;DHT22;44236;48.098;11.582;2022-08-11T17:43:01;26.90;35.80
41644;DHT22;44236;48.098;11.582;2022-08-11T17:45:46;27.00;35.50
41644;DHT22;44236;48.098;11.582;2022-08-11T17:48:34;27.00;35.10
41644;DHT22;44236;48.098;11.582;2022-08-11T17:51:06;27.10;34.90
41644;DHT22;44236;48.098;11.582;2022-08-11T17:53:42;27.10;34.60
41644;DHT22;44236;48.098;11.582;2022-08-11T17:56:30;27.20;34.30
41644;DHT22;44236;48.098;11.582;2022-08-11T17:59:17;27.20;34.40
41644;DHT22;44236;48.098;11.582;2022-08-11T18:02:04;27.30;34.30
41644;DHT22;44236;48.098;11.582;2022-08-11T18:04:51;27.30;34.40
41644;DHT22;44236;48.098;11.582;2022-08-11T18:07:18;27.40;34.40
41644;DHT22;44236;48.098;11.582;2022-08-11T18:10:06;27.40;34.60
41644;DHT22;44236;48.098;11.582;2022-08-11T18:12:53;27.50;34.80
41644;DHT22;44236;48.098;11.582;2022-08-11T18:15:42;27.50;34.80
41644;DHT22;44236;48.098;11.582;2022-08-11T18:18:28;27.60;35.00
41644;DHT22;44236;48.098;11.582;2022-08-11T18:21:15;27.70;35.20
41644;DHT22;44236;48.098;11.582;2022-08-11T18:24:09;27.70;35.40
41644;DHT22;44236;48.098;11.582;2022-08-11T18:26:56;27.80;35.40
41644;DHT22;44236;48.098;11.582;2022-08-11T18:29:42;27.90;35.00
41644;DHT22;44236;48.098;11.582;2022-08-11T18:32:31;27.90;35.40
41644;DHT22;44236;48.098;11.582;2022-08-11T18:35:21;28.00;35.50
41644;DHT22;44236;48.098;11.582;2022-08-11T18:38:09;28.10;35.40
41644;DHT22;44236;48.098;11.582;2022-08-11T18:40:53;28.10;35.50
41644;DHT22;44236;48.098;11.582;2022-08-11T18:43:41;28.20;35.50
41644;DHT22;44236;48.098;11.582;2022-08-11T18:46:32;28.20;35.10
41644;DHT22;44236;48.098;11.582;2022-08-11T18:49:20;28.30;34.60
41644;DHT22;44236;48.098;11.582;2022-08-11T18:52:06;28.30;34.10
41644;DHT22;44236;48.098;11.582;2022-08-11T18:54:57;28.40;33.70
41644;DHT22;44236;48.098;11.582;2022-08-11T18:57:42;28.40;33.30
41644;DHT22;44236;48.098;11.582;2022-08-11T19:00:30;28.40;33.00
41644;DHT22;44236;48.098;11.582;2022-08-11T19:03:15;28.50;32.80
41644;DHT22;44236;48.098;11.582;2022-08-11T19:06:03;28.50;32.50
41644;DHT22;44236;48.098;11.582;2022-08-11T19:08:52;27.60;31.80
41644;DHT22;44236;48.098;11.582;2022-08-11T19:11:38;28.60;32.50
41644;DHT22;44236;48.098;11.582;2022-08-11T19:14:24;28.60;32.40
41644;DHT22;44236;48.098;11.582;2022-08-11T19:17:09;28.60;32.40
41644;DHT22;44236;48.098;11.582;2022-08-11T19:19:56;28.70;31.80
41644;DHT22;44236;48.098;11.582;2022-08-11T19:22:42;28.60;31.80
41644;DHT22;44236;48.098;11.582;2022-08-11T19:25:29;28.70;32.30
41644;DHT22;44236;48.098;11.582;2022-08-11T19:28:13;28.70;32.20
41644;DHT22;44236;48.098;11.582;2022-08-11T19:30:59;28.70;32.10
41644;DHT22;44236;48.098;11.582;2022-08-11T19:33:44;28.80;32.20
41644;DHT22;44236;48.098;11.582;2022-08-11T19:36:32;28.80;32.20
41644;DHT22;44236;48.098;11.582;2022-08-11T19:39:19;28.80;32.20
41644;DHT22;44236;48.098;11.582;2022-08-11T19:42:06;28.80;32.20
41644;DHT22;44236;48.098;11.582;2022-08-11T19:44:52;28.80;32.10
41644;DHT22;44236;48.098;11.582;2022-08-11T19:47:37;28.80;32.10
41644;DHT22;44236;48.098;11.582;2022-08-11T19:50:21;28.80;32.20
41644;DHT22;44236;48.098;11.582;2022-08-11T19:53:06;28.80;32.10
41644;DHT22;44236;48.098;11.582;2022-08-11T19:55:51;28.80;32.10
41644;DHT22;44236;48.098;11.582;2022-08-11T19:58:37;28.80;31.90
41644;DHT22;44236;48.098;11.582;2022-08-11T20:01:22;28.80;31.90
41644;DHT22;44236;48.098;11.582;2022-08-11T20:04:07;28.80;32.30
41644;DHT22;44236;48.098;11.582;2022-08-11T20:06:54;28.80;32.40
41644;DHT22;44236;48.098;11.582;2022-08-11T20:09:58;28.80;31.90